Airfield :
LOGIN :

Register | Disclaimer

   EN    FR    IT 

 










Legend :    VFR   Marginal VFR   IFR   Intensive IFR   Very Intensive IFR
Visi :
Ceiling :
>= 8 km
>= 3000ft
5 to 8 km
1000 to 3000 ft
1500m to 5 km
500 to 1000 ft
800 to 1500m
200 to 500 ft
< 800m
< 200 ft
Symbols :   Thunderstorms  Fog  Heavy snow  Heavy precipitations  Wind > 20 kt
SIGMETs :     Misc.  Thunderstorms  Icing  Turbulence  Mountain Waves  Volcanic Ashes






- Airport Elevation : 49 ft
- IATA code : SEN


EGMC - Southend

CURRENT METAR :
  • 171250Z 30012KT 260V340 9999 FEW048 12/00 Q1014

EXPIRED METARs :
  • 171220Z 30013KT 260V340 9999 SCT040 11/00 Q1014
  • 171150Z 31010KT 260V340 9999 SCT040 10/M01 Q1014
  • 171120Z 31010KT 260V350 9999 SCT038 11/01 Q1014
  • 171050Z 32009KT 290V360 9999 SCT037 09/01 Q1014
  • 171020Z 31010KT 260V320 9999 SCT031 09/01 Q1014
  • 170950Z 30012KT 260V320 9999 SCT033 09/02 Q1014
  • 170920Z 32013KT 280V350 9999 SCT030 09/02 Q1015
  • 170850Z 30010KT 260V330 9999 SCT026 09/02 Q1015
  • 170820Z 30010KT 260V330 9999 FEW022 07/02 Q1015

TAF TAF EGMC
Valid from the 17 at 12:00 until the 17 at 20:00 UTC


171059Z 1712/1720 31012KT 9999 SCT035
PROB30
TEMPO 1712/1715 33015G25KT 7000 SHRA
PROB30
TEMPO 1715/1720 33015G25KT 4000 +SHRA



MET'MAP, your aeronautical weather chart ! - Copyright ORBIFLY December 2007 - Disclaimer

ORBIFLY MET'MAP TEAM :

Programming & Development : Alexandra Zaïnal
Original concept : Baudouin d'Aumeries
Technical & hardware support : Manuel Goepfert
Assistance : Marc-Olivier Méhu




SOURCES & CREDITS :

   NOAA